createdAt,value
2018-09-25T00:02:32.501Z,21.62
2018-09-25T00:05:05.997Z,21.59
2018-09-25T00:07:39.073Z,21.63
2018-09-25T00:10:12.457Z,21.63
2018-09-25T00:12:45.665Z,21.59
2018-09-25T00:15:18.069Z,21.60
2018-09-25T00:17:51.246Z,21.56
2018-09-25T00:20:24.929Z,21.61
2018-09-25T00:22:58.174Z,21.62
2018-09-25T00:25:31.609Z,21.60
2018-09-25T00:28:04.757Z,21.54
2018-09-25T00:30:37.942Z,21.63
2018-09-25T00:33:11.004Z,21.62
2018-09-25T00:35:44.165Z,21.62
2018-09-25T00:38:16.493Z,21.59
2018-09-25T00:40:48.872Z,21.55
2018-09-25T00:43:22.012Z,21.56
2018-09-25T00:45:54.456Z,21.59
2018-09-25T00:48:27.576Z,21.55
2018-09-25T00:50:59.956Z,21.58
2018-09-25T00:53:32.439Z,21.57
2018-09-25T00:56:04.942Z,21.58
2018-09-25T00:58:38.001Z,21.56
2018-09-25T01:01:11.783Z,21.56
2018-09-25T01:03:44.977Z,21.59
2018-09-25T01:06:17.274Z,21.60
2018-09-25T01:08:49.780Z,21.61
2018-09-25T01:11:23.020Z,21.57
2018-09-25T01:13:55.281Z,21.55
2018-09-25T01:16:28.363Z,21.55
2018-09-25T01:19:02.228Z,21.55
2018-09-25T01:21:35.313Z,21.56
2018-09-25T01:24:07.717Z,21.48
2018-09-25T01:26:40.976Z,21.53
2018-09-25T01:29:14.118Z,21.54
2018-09-25T01:31:47.570Z,21.52
2018-09-25T01:34:19.988Z,21.52
2018-09-25T01:36:53.086Z,21.48
2018-09-25T01:39:25.490Z,21.52
2018-09-25T01:41:58.525Z,21.54
2018-09-25T01:44:31.960Z,21.54
2018-09-25T01:47:04.421Z,21.53
2018-09-25T01:49:37.205Z,21.51
2018-09-25T01:52:11.083Z,21.54
2018-09-25T01:54:44.201Z,21.50
2018-09-25T01:57:17.473Z,21.54
2018-09-25T01:59:51.643Z,21.51
2018-09-25T02:02:24.050Z,21.49
2018-09-25T02:04:57.301Z,21.49
2018-09-25T02:07:31.908Z,21.53
2018-09-25T02:10:04.961Z,21.49
2018-09-25T02:12:37.402Z,21.46
2018-09-25T02:15:10.961Z,21.48
2018-09-25T02:17:43.392Z,21.48
2018-09-25T02:20:16.757Z,21.51
2018-09-25T02:22:49.924Z,21.48
2018-09-25T02:25:22.393Z,21.50
2018-09-25T02:27:54.844Z,21.49
2018-09-25T02:30:27.278Z,21.45
2018-09-25T02:33:01.734Z,21.48
2018-09-25T02:35:35.012Z,21.51
2018-09-25T02:38:08.112Z,21.49
2018-09-25T02:40:41.335Z,21.49
2018-09-25T02:43:14.457Z,21.50
2018-09-25T02:45:47.716Z,21.46
2018-09-25T02:48:20.070Z,21.40
2018-09-25T02:50:52.497Z,21.43
2018-09-25T02:53:24.890Z,21.45
2018-09-25T02:55:57.262Z,21.51
2018-09-25T02:58:31.929Z,21.55
2018-09-25T03:01:04.517Z,21.50
2018-09-25T03:03:37.761Z,21.50
2018-09-25T03:06:11.158Z,21.48
2018-09-25T03:08:44.356Z,21.48
2018-09-25T03:11:17.454Z,21.47
2018-09-25T03:13:50.496Z,21.45
2018-09-25T03:16:24.611Z,21.44
2018-09-25T03:18:57.700Z,21.45
2018-09-25T03:21:32.465Z,21.44
2018-09-25T03:24:04.980Z,21.42
2018-09-25T03:26:37.304Z,21.42
2018-09-25T03:29:09.600Z,21.43
2018-09-25T03:31:42.773Z,21.46
2018-09-25T03:34:15.160Z,21.44
2018-09-25T03:36:47.516Z,21.37
2018-09-25T03:39:19.938Z,21.36
2018-09-25T03:41:52.357Z,21.39
2018-09-25T03:44:25.471Z,21.38
2018-09-25T03:46:57.984Z,21.35
2018-09-25T03:49:31.330Z,21.37
2018-09-25T03:52:04.457Z,21.38
2018-09-25T03:54:37.556Z,21.35
2018-09-25T03:57:09.977Z,21.36
2018-09-25T03:59:43.133Z,21.37
2018-09-25T04:02:15.529Z,21.33
2018-09-25T04:04:47.885Z,21.39
2018-09-25T04:07:20.265Z,21.37
2018-09-25T04:09:53.401Z,21.35
2018-09-25T04:12:25.724Z,21.33
2018-09-25T04:14:59.033Z,21.37
2018-09-25T04:17:31.405Z,21.36
2018-09-25T04:20:04.473Z,21.37
2018-09-25T04:22:36.870Z,21.32
2018-09-25T04:25:11.025Z,21.37
2018-09-25T04:27:43.353Z,21.34
2018-09-25T04:30:15.744Z,21.34
2018-09-25T04:32:48.188Z,21.37
2018-09-25T04:35:20.630Z,21.38
2018-09-25T04:37:53.060Z,21.34
2018-09-25T04:40:25.485Z,21.41
2018-09-25T04:42:58.688Z,21.42
2018-09-25T04:45:32.253Z,21.35
2018-09-25T04:48:04.568Z,21.36
2018-09-25T04:50:37.058Z,21.40
2018-09-25T04:53:11.209Z,21.43
2018-09-25T04:55:44.363Z,21.28
2018-09-25T04:58:17.447Z,21.27
2018-09-25T05:00:49.828Z,21.21
2018-09-25T05:03:22.252Z,21.27
2018-09-25T05:05:54.557Z,21.25
2018-09-25T05:08:26.870Z,21.27
2018-09-25T05:10:59.321Z,21.32
2018-09-25T05:13:32.728Z,21.27
2018-09-25T05:16:05.065Z,21.28
2018-09-25T05:18:37.585Z,21.39
2018-09-25T05:21:09.837Z,21.47
2018-09-25T05:23:43.195Z,21.50
2018-09-25T05:26:16.208Z,21.49
2018-09-25T05:28:50.555Z,21.46
2018-09-25T05:31:28.185Z,21.49
2018-09-25T05:34:01.610Z,21.49
2018-09-25T05:36:35.227Z,21.39
2018-09-25T05:39:07.624Z,21.37
2018-09-25T05:41:40.023Z,21.48
2018-09-25T05:44:12.356Z,21.49
2018-09-25T05:46:44.641Z,21.52
2018-09-25T05:49:17.052Z,21.54
2018-09-25T05:51:50.300Z,21.50
2018-09-25T05:54:23.380Z,21.51
2018-09-25T05:56:56.541Z,21.48
2018-09-25T05:59:29.714Z,21.49
2018-09-25T06:02:02.868Z,21.41
2018-09-25T06:04:36.034Z,21.51
2018-09-25T06:07:09.057Z,21.50
2018-09-25T06:09:41.417Z,21.49
2018-09-25T06:12:13.825Z,21.48
2018-09-25T06:14:46.950Z,21.52
2018-09-25T06:17:19.225Z,21.58
2018-09-25T06:19:52.315Z,21.52
2018-09-25T06:22:25.380Z,21.52
2018-09-25T06:24:58.392Z,21.41
2018-09-25T06:27:31.549Z,21.53
2018-09-25T06:30:05.017Z,21.48
2018-09-25T06:32:37.341Z,21.48
2018-09-25T06:35:09.710Z,21.53
2018-09-25T06:37:42.071Z,21.45
2018-09-25T06:40:15.269Z,21.41
2018-09-25T06:42:47.724Z,21.43
2018-09-25T06:45:20.065Z,21.38
2018-09-25T06:47:52.440Z,21.36
2018-09-25T06:50:24.788Z,21.37
2018-09-25T06:52:58.038Z,21.36
2018-09-25T06:55:30.385Z,21.46
2018-09-25T06:58:02.860Z,21.46
2018-09-25T07:00:35.748Z,21.51
2018-09-25T07:03:08.327Z,21.51
2018-09-25T07:05:41.705Z,21.61
2018-09-25T07:08:14.273Z,21.49
2018-09-25T07:10:46.557Z,21.58
2018-09-25T07:13:18.904Z,21.42
2018-09-25T07:15:51.256Z,21.55
2018-09-25T07:18:23.656Z,21.50
2018-09-25T07:20:55.924Z,21.58
2018-09-25T07:23:28.241Z,21.68
2018-09-25T07:26:01.568Z,21.63
2018-09-25T07:28:34.562Z,21.69
2018-09-25T07:31:06.986Z,21.71
2018-09-25T07:33:39.437Z,21.71
2018-09-25T07:36:12.625Z,21.70
2018-09-25T07:38:45.080Z,21.64
2018-09-25T07:41:17.375Z,21.61
2018-09-25T07:43:49.828Z,21.76
2018-09-25T07:46:22.221Z,21.79
2018-09-25T07:48:55.581Z,21.80
2018-09-25T07:51:28.031Z,21.79
2018-09-25T07:54:01.221Z,21.78
2018-09-25T07:56:34.341Z,21.81
2018-09-25T07:59:06.712Z,21.75
2018-09-25T08:01:39.025Z,21.79
2018-09-25T08:04:12.344Z,21.78
2018-09-25T08:06:44.685Z,21.89
2018-09-25T08:09:17.773Z,21.94
2018-09-25T08:11:50.972Z,21.93
2018-09-25T08:14:24.226Z,21.95
2018-09-25T08:16:56.908Z,21.91
2018-09-25T08:19:29.237Z,21.86
2018-09-25T08:22:02.345Z,21.89
2018-09-25T08:24:34.644Z,21.87
2018-09-25T08:27:06.957Z,21.95
2018-09-25T08:29:39.503Z,21.94
2018-09-25T08:32:12.918Z,21.96
2018-09-25T08:34:45.272Z,21.95
2018-09-25T08:37:17.528Z,21.95
2018-09-25T08:39:49.873Z,21.89
2018-09-25T08:42:23.048Z,21.87
2018-09-25T08:44:55.404Z,21.88
2018-09-25T08:47:28.497Z,21.95
2018-09-25T08:50:01.970Z,21.92
2018-09-25T08:52:35.078Z,21.95
2018-09-25T08:55:07.429Z,22.04
2018-09-25T08:57:39.856Z,21.93
2018-09-25T09:00:12.256Z,21.91
2018-09-25T09:02:44.590Z,21.88
2018-09-25T09:05:17.841Z,21.93
2018-09-25T09:07:50.283Z,22.06
2018-09-25T09:10:22.627Z,21.94
2018-09-25T09:12:54.966Z,22.01
2018-09-25T09:15:27.353Z,22.07
2018-09-25T09:17:59.716Z,22.03
2018-09-25T09:20:32.131Z,22.04
2018-09-25T09:23:05.437Z,22.03
2018-09-25T09:25:37.789Z,22.02
2018-09-25T09:28:11.180Z,22.13
2018-09-25T09:30:43.524Z,22.10
2018-09-25T09:33:15.863Z,22.13
2018-09-25T09:35:49.033Z,22.19
2018-09-25T09:38:21.468Z,22.16
2018-09-25T09:40:54.981Z,22.17
2018-09-25T09:43:27.376Z,22.06
2018-09-25T09:45:59.745Z,22.03
2018-09-25T09:48:32.201Z,22.08
2018-09-25T09:51:04.553Z,22.08
2018-09-25T09:53:37.676Z,22.10
2018-09-25T09:56:11.010Z,22.14
2018-09-25T09:58:43.272Z,22.08
2018-09-25T10:01:15.632Z,22.09
2018-09-25T10:03:48.990Z,22.09
2018-09-25T10:06:21.336Z,22.07
2018-09-25T10:08:53.693Z,22.09
2018-09-25T10:11:26.080Z,22.09
2018-09-25T10:13:58.468Z,22.07
2018-09-25T10:16:31.885Z,22.14
2018-09-25T10:19:04.708Z,22.09
2018-09-25T10:21:38.025Z,22.12
2018-09-25T10:24:11.357Z,22.07
2018-09-25T10:26:44.299Z,22.04
2018-09-25T10:29:17.420Z,22.05
2018-09-25T10:31:49.850Z,22.07
2018-09-25T10:34:22.925Z,22.12
2018-09-25T10:36:55.358Z,22.11
2018-09-25T10:39:27.713Z,22.16
2018-09-25T10:42:00.077Z,22.21
2018-09-25T10:44:32.478Z,22.12
2018-09-25T10:47:04.856Z,22.05
2018-09-25T10:49:37.248Z,22.08
2018-09-25T10:52:09.551Z,22.01
2018-09-25T10:54:41.912Z,22.07
2018-09-25T10:57:15.001Z,22.09
2018-09-25T10:59:47.335Z,22.14
2018-09-25T11:02:19.800Z,22.12
2018-09-25T11:04:52.873Z,22.18
2018-09-25T11:07:26.010Z,22.13
2018-09-25T11:09:58.435Z,22.09
2018-09-25T11:12:31.269Z,22.06
2018-09-25T11:15:04.380Z,22.07
2018-09-25T11:17:36.802Z,22.10
2018-09-25T11:20:10.792Z,22.09
2018-09-25T11:22:44.004Z,22.13
2018-09-25T11:25:16.308Z,22.10
2018-09-25T11:27:49.460Z,22.07
2018-09-25T11:30:22.021Z,22.07
2018-09-25T11:32:55.362Z,22.11
2018-09-25T11:35:28.531Z,22.11
2018-09-25T11:38:01.903Z,22.15
2018-09-25T11:40:35.803Z,22.19
2018-09-25T11:43:08.168Z,22.18
2018-09-25T11:45:41.269Z,22.28
2018-09-25T11:48:14.449Z,22.31
2018-09-25T11:50:47.686Z,22.29
2018-09-25T11:53:21.004Z,22.25
2018-09-25T11:58:25.300Z,22.19
2018-09-25T12:00:57.592Z,22.19
2018-09-25T12:03:30.396Z,22.22
2018-09-25T12:06:02.710Z,22.24
2018-09-25T12:08:35.573Z,22.15
2018-09-25T12:11:07.921Z,22.23
2018-09-25T12:13:41.155Z,22.25
2018-09-25T12:16:13.689Z,22.25
2018-09-25T12:18:46.962Z,22.21
2018-09-25T12:21:19.395Z,22.21
2018-09-25T12:23:52.677Z,22.19
2018-09-25T12:26:24.993Z,22.18
2018-09-25T12:28:57.428Z,22.15
2018-09-25T12:31:29.788Z,22.21
2018-09-25T12:34:02.112Z,22.13
2018-09-25T12:36:34.481Z,22.19
2018-09-25T12:39:07.665Z,22.12
2018-09-25T12:41:40.809Z,22.19
2018-09-25T12:44:13.984Z,22.16
2018-09-25T12:46:47.092Z,22.19
2018-09-25T12:49:20.216Z,22.20
2018-09-25T12:51:53.185Z,22.20
2018-09-25T12:54:26.244Z,22.26
2018-09-25T12:56:59.437Z,22.19
2018-09-25T12:59:32.582Z,22.16
2018-09-25T13:02:05.726Z,22.11
2018-09-25T13:04:38.841Z,22.17
2018-09-25T13:07:11.973Z,22.19
2018-09-25T13:09:45.247Z,22.24
2018-09-25T13:12:18.263Z,22.25
2018-09-25T13:14:51.325Z,22.23
2018-09-25T13:17:24.488Z,22.27
2018-09-25T13:19:57.609Z,22.29
2018-09-25T13:22:30.701Z,22.26
2018-09-25T13:25:04.464Z,22.20
2018-09-25T13:27:37.564Z,22.20
2018-09-25T13:30:11.848Z,22.19
2018-09-25T13:32:45.032Z,22.20
2018-09-25T13:40:21.761Z,22.25
2018-09-25T13:42:55.047Z,22.25
2018-09-25T13:45:28.201Z,22.18
2018-09-25T13:48:06.733Z,22.16
2018-09-25T13:50:39.165Z,22.21
2018-09-25T13:53:12.329Z,22.15
2018-09-25T13:55:45.393Z,22.19
2018-09-25T13:58:17.797Z,22.23
2018-09-25T14:00:50.898Z,22.24
2018-09-25T14:03:24.006Z,22.25
2018-09-25T14:05:57.085Z,22.22
2018-09-25T14:08:29.444Z,22.17
2018-09-25T14:11:02.521Z,22.11
2018-09-25T14:13:35.742Z,22.16
2018-09-25T14:16:08.813Z,22.18
2018-09-25T14:18:41.913Z,22.27
2018-09-25T14:21:15.249Z,22.28
2018-09-25T14:23:47.577Z,22.33
2018-09-25T14:26:20.018Z,22.38
2018-09-25T14:28:52.315Z,22.34
2018-09-25T14:31:26.115Z,22.39
2018-09-25T14:33:58.624Z,22.39
2018-09-25T14:36:32.097Z,22.29
2018-09-25T14:39:04.580Z,22.28
2018-09-25T14:41:37.011Z,22.35
2018-09-25T14:44:09.381Z,22.27
2018-09-25T14:46:42.833Z,22.37
2018-09-25T14:49:15.125Z,22.36
2018-09-25T14:51:47.472Z,22.34
2018-09-25T14:54:19.947Z,22.40
2018-09-25T14:56:52.380Z,22.42
2018-09-25T14:59:25.268Z,22.36
2018-09-25T15:01:57.637Z,22.34
2018-09-25T15:04:30.091Z,22.28
2018-09-25T15:07:02.432Z,22.30
2018-09-25T15:09:35.052Z,22.34
2018-09-25T15:12:07.493Z,22.34
2018-09-25T15:14:39.902Z,22.29
2018-09-25T15:17:12.246Z,22.35
2018-09-25T15:19:44.609Z,22.32
2018-09-25T15:22:17.194Z,22.35
2018-09-25T15:24:50.035Z,22.36
2018-09-25T15:27:23.014Z,22.30
2018-09-25T15:29:56.273Z,22.27
2018-09-25T15:32:29.374Z,22.27
2018-09-25T15:35:01.755Z,22.32
2018-09-25T15:37:34.948Z,22.31
2018-09-25T15:40:08.008Z,22.28
2018-09-25T15:42:41.300Z,22.27
2018-09-25T15:45:14.488Z,22.28
2018-09-25T15:47:47.645Z,22.29
2018-09-25T15:50:20.731Z,22.31
2018-09-25T15:52:53.878Z,22.31
2018-09-25T15:55:27.124Z,22.29
2018-09-25T15:57:59.449Z,22.28
2018-09-25T16:03:04.316Z,22.17
2018-09-25T16:05:37.402Z,22.22
2018-09-25T16:08:09.849Z,22.21
2018-09-25T16:10:42.273Z,22.25
2018-09-25T16:13:14.636Z,22.25
2018-09-25T16:15:47.848Z,22.23
2018-09-25T16:18:20.256Z,22.21
2018-09-25T16:20:53.447Z,22.08
2018-09-25T16:23:25.677Z,22.14
2018-09-25T16:25:58.836Z,22.17
2018-09-25T16:28:32.340Z,22.12
2018-09-25T16:31:05.602Z,22.13
2018-09-25T16:33:38.797Z,22.10
2018-09-25T16:36:12.410Z,22.11
2018-09-25T16:38:45.583Z,22.15
2018-09-25T16:41:18.044Z,22.15
2018-09-25T16:43:50.389Z,22.19
2018-09-25T16:46:22.961Z,22.11
2018-09-25T16:48:56.202Z,22.11
2018-09-25T16:51:29.335Z,22.09
2018-09-25T16:54:02.452Z,22.11
2018-09-25T16:56:34.809Z,22.14
2018-09-25T16:59:07.109Z,22.06
2018-09-25T17:01:39.541Z,22.08
2018-09-25T17:04:12.965Z,22.04
2018-09-25T17:06:45.417Z,22.04
2018-09-25T17:09:18.570Z,22.07
2018-09-25T17:11:52.046Z,22.10
2018-09-25T17:14:25.486Z,22.03
2018-09-25T17:16:57.969Z,22.01
2018-09-25T17:19:30.537Z,21.99
2018-09-25T17:22:04.833Z,22.00
2018-09-25T17:24:37.330Z,22.03
2018-09-25T17:27:09.725Z,22.01
2018-09-25T17:29:42.089Z,22.01
2018-09-25T17:32:15.377Z,22.03
2018-09-25T17:34:47.801Z,22.03
2018-09-25T17:37:21.069Z,22.01
2018-09-25T17:39:53.542Z,22.04
2018-09-25T17:42:26.016Z,22.00
2018-09-25T17:44:59.337Z,22.06
2018-09-25T17:47:32.105Z,22.10
2018-09-25T17:50:04.707Z,22.10
2018-09-25T17:52:37.110Z,21.96
2018-09-25T17:55:09.517Z,21.95
2018-09-25T17:57:41.969Z,21.97
2018-09-25T18:00:14.338Z,21.92
2018-09-25T18:02:46.877Z,21.97
2018-09-25T18:05:19.190Z,21.99
2018-09-25T18:07:51.636Z,22.01
2018-09-25T18:10:24.072Z,22.01
2018-09-25T18:12:57.512Z,21.94
2018-09-25T18:15:31.324Z,21.93
2018-09-25T18:18:04.405Z,21.94
2018-09-25T18:20:37.623Z,21.94
2018-09-25T18:23:09.893Z,22.00
2018-09-25T18:25:42.430Z,21.99
2018-09-25T18:28:14.841Z,22.01
2018-09-25T18:30:47.580Z,21.99
2018-09-25T18:33:20.051Z,22.00
2018-09-25T18:35:52.498Z,21.96
2018-09-25T18:38:25.518Z,21.95
2018-09-25T18:40:58.172Z,22.00
2018-09-25T18:43:30.604Z,21.98
2018-09-25T18:46:03.125Z,22.01
2018-09-25T18:48:35.573Z,21.98
2018-09-25T18:51:08.520Z,21.95
2018-09-25T18:53:40.940Z,21.92
2018-09-25T18:56:14.003Z,22.01
2018-09-25T18:58:46.447Z,22.03
2018-09-25T19:01:19.140Z,22.00
2018-09-25T19:03:51.636Z,22.02
2018-09-25T19:06:26.258Z,21.99
2018-09-25T19:08:58.760Z,21.92
2018-09-25T19:11:31.769Z,21.94
2018-09-25T19:14:04.577Z,21.94
2018-09-25T19:16:36.844Z,22.03
2018-09-25T19:19:09.348Z,21.98
2018-09-25T19:21:41.710Z,21.96
2018-09-25T19:24:14.770Z,21.89
2018-09-25T19:26:47.176Z,21.91
2018-09-25T19:29:20.491Z,21.89
2018-09-25T19:31:53.721Z,21.95
2018-09-25T19:34:26.409Z,21.92
2018-09-25T19:36:58.971Z,21.88
2018-09-25T19:39:31.336Z,21.93
2018-09-25T19:42:05.192Z,21.91
2018-09-25T19:44:38.440Z,21.83
2018-09-25T19:47:12.577Z,21.84
2018-09-25T19:49:45.614Z,21.86
2018-09-25T19:52:18.568Z,21.87
2018-09-25T19:54:51.793Z,21.87
2018-09-25T19:57:25.056Z,21.86
2018-09-25T19:59:57.587Z,21.91
2018-09-25T20:02:31.157Z,21.94
2018-09-25T20:05:05.966Z,21.95
2018-09-25T20:07:39.125Z,21.97
2018-09-25T20:10:11.449Z,21.99
2018-09-25T20:12:43.955Z,21.95
2018-09-25T20:15:16.429Z,21.91
2018-09-25T20:17:48.804Z,21.92
2018-09-25T20:20:21.061Z,21.99
2018-09-25T20:22:53.508Z,21.98
2018-09-25T20:25:25.853Z,22.02
2018-09-25T20:27:58.154Z,21.95
2018-09-25T20:30:30.490Z,21.89
2018-09-25T20:33:02.811Z,21.87
2018-09-25T20:35:35.381Z,21.89
2018-09-25T20:38:08.436Z,21.95
2018-09-25T20:40:40.879Z,21.96
2018-09-25T20:43:13.164Z,21.96
2018-09-25T20:45:45.623Z,21.96
2018-09-25T20:48:18.125Z,21.96
2018-09-25T20:50:50.590Z,21.89
2018-09-25T20:53:22.980Z,21.91
2018-09-25T20:55:55.435Z,21.87
2018-09-25T20:58:27.785Z,21.95
2018-09-25T21:01:00.149Z,21.98
2018-09-25T21:03:32.417Z,21.88
2018-09-25T21:06:05.545Z,21.89
2018-09-25T21:08:37.906Z,21.86
2018-09-25T21:11:11.190Z,21.93
2018-09-25T21:13:43.567Z,21.94
2018-09-25T21:16:15.879Z,21.94
2018-09-25T21:18:48.988Z,21.94
2018-09-25T21:21:21.382Z,21.87
2018-09-25T21:23:55.112Z,21.89
2018-09-25T21:26:27.540Z,21.85
2018-09-25T21:29:00.021Z,21.91
2018-09-25T21:31:33.094Z,21.96
2018-09-25T21:34:05.392Z,21.97
2018-09-25T21:36:37.735Z,21.91
2018-09-25T21:39:12.101Z,21.83
2018-09-25T21:41:44.514Z,21.88
2018-09-25T21:44:17.544Z,21.78
2018-09-25T21:46:49.875Z,21.73
2018-09-25T21:49:23.077Z,21.70
2018-09-25T21:51:55.526Z,21.61
2018-09-25T21:54:27.789Z,21.61
2018-09-25T21:57:00.123Z,21.66
2018-09-25T21:59:32.425Z,21.68
2018-09-25T22:02:04.885Z,21.68
2018-09-25T22:04:38.256Z,21.71
2018-09-25T22:07:12.536Z,21.64
2018-09-25T22:09:44.905Z,21.71
2018-09-25T22:12:17.234Z,21.74
2018-09-25T22:14:49.625Z,21.76
2018-09-25T22:17:21.939Z,21.79
2018-09-25T22:19:54.205Z,21.84
2018-09-25T22:22:27.268Z,21.85
2018-09-25T22:25:00.292Z,21.79
2018-09-25T22:27:32.653Z,21.72
2018-09-25T22:30:05.753Z,21.77
2018-09-25T22:32:38.219Z,21.79
2018-09-25T22:35:11.349Z,21.82
2018-09-25T22:37:43.800Z,21.79
2018-09-25T22:40:16.078Z,21.84
2018-09-25T22:42:49.176Z,21.80
2018-09-25T22:45:22.193Z,21.76
2018-09-25T22:47:55.749Z,21.77
2018-09-25T22:50:28.152Z,21.80
2018-09-25T22:53:00.544Z,21.84
2018-09-25T22:55:34.424Z,21.82
2018-09-25T22:58:07.477Z,21.83
2018-09-25T23:00:42.292Z,21.76
2018-09-25T23:03:14.611Z,21.71
2018-09-25T23:05:47.079Z,21.74
2018-09-25T23:08:20.280Z,21.82
2018-09-25T23:10:52.661Z,21.81
2018-09-25T23:13:26.026Z,21.77
2018-09-25T23:15:58.385Z,21.81
2018-09-25T23:18:30.737Z,21.71
2018-09-25T23:21:04.384Z,21.69
2018-09-25T23:23:36.746Z,21.66
2018-09-25T23:26:09.138Z,21.72
2018-09-25T23:28:41.593Z,21.69
2018-09-25T23:31:13.940Z,21.70
2018-09-25T23:33:46.405Z,21.76
2018-09-25T23:36:18.824Z,21.66
2018-09-25T23:38:51.156Z,21.67
2018-09-25T23:42:22.133Z,21.70
2018-09-25T23:45:01.209Z,21.45
2018-09-25T23:47:37.183Z,21.62
2018-09-25T23:50:14.920Z,21.76
2018-09-25T23:52:47.857Z,21.66
2018-09-25T23:55:19.553Z,21.65
2018-09-25T23:57:47.975Z,21.59
